Time;durP1;ratioP1;P1;durP2;ratioP2;P2;SDS_P1;SDS_P2;PMS_P1;PMS_P2;Temp;Humidity;BMP_temperature;BMP_pressure;BME280_temperature;BME280_humidity;BME280_pressure;Samples;Min_cycle;Max_cycle;Signal;HPM_P1;HPM_P2
2021/12/23 00:02:00;;;;;;;81.13;36.53;;;;;;;;;;5112637;28;20016;-77
2021/12/23 00:04:26;;;;;;;83.80;36.92;;;;;;;;;;5115394;28;20023;-76
2021/12/23 00:06:52;;;;;;;84.97;36.10;;;;;;;;;;5114264;28;20040;-77
2021/12/23 00:09:19;;;;;;;89.25;36.30;;;;;;;;;;5101698;28;20031;-79
2021/12/23 00:11:45;;;;;;;79.88;35.33;;;;;;;;;;5098872;28;20024;-78
2021/12/23 00:14:11;;;;;;;85.47;36.47;;;;;;;;;;5096716;28;20034;-79
2021/12/23 00:16:44;;;;;;;86.78;36.78;;;;;;;;;;5100646;28;20115;-79
2021/12/23 00:23:20;;;;;;;85.07;36.20;;;;;;;;;;5102452;28;20020;-77
2021/12/23 00:24:46;;;;;;;86.82;36.50;;;;;;;;;;5097247;28;20043;-78
2021/12/23 00:27:12;;;;;;;86.35;36.53;;;;;;;;;;5098790;28;20028;-79
2021/12/23 00:29:39;;;;;;;96.75;38.13;;;;;;;;;;5086640;28;20016;-77
2021/12/23 00:32:07;;;;;;;96.40;37.55;;;;;;;;;;5116358;28;20046;-77
2021/12/23 00:34:34;;;;;;;93.88;36.45;;;;;;;;;;5112521;28;20024;-79
2021/12/23 00:37:01;;;;;;;93.60;37.45;;;;;;;;;;5081710;28;20028;-78
2021/12/23 00:39:28;;;;;;;99.20;38.13;;;;;;;;;;5102086;28;20039;-78
2021/12/23 00:41:56;;;;;;;92.07;36.80;;;;;;;;;;5101977;28;20085;-78
2021/12/23 00:44:22;;;;;;;93.30;36.63;;;;;;;;;;5100519;28;20020;-79
2021/12/23 00:46:48;;;;;;;92.80;37.78;;;;;;;;;;5100290;28;20031;-77
2021/12/23 00:49:14;;;;;;;94.85;37.90;;;;;;;;;;5100990;28;20032;-80
2021/12/23 00:51:40;;;;;;;93.40;35.65;;;;;;;;;;5101877;28;20019;-79
2021/12/23 00:54:06;;;;;;;89.32;37.75;;;;;;;;;;5103462;28;20498;-78
2021/12/23 00:56:36;;;;;;;87.75;35.47;;;;;;;;;;5108685;28;20024;-78
2021/12/23 00:59:04;;;;;;;107.93;38.78;;;;;;;;;;5107050;28;20020;-78
2021/12/23 01:01:30;;;;;;;97.75;36.80;;;;;;;;;;5104832;28;20087;-77
2021/12/23 01:03:56;;;;;;;95.05;36.97;;;;;;;;;;5114648;28;20073;-77
2021/12/23 01:06:22;;;;;;;95.13;36.65;;;;;;;;;;5117321;28;20028;-77
2021/12/23 01:08:48;;;;;;;98.38;37.28;;;;;;;;;;5092533;28;20028;-78
2021/12/23 01:11:14;;;;;;;99.18;37.97;;;;;;;;;;5099620;28;20059;-77
2021/12/23 01:13:47;;;;;;;100.18;38.45;;;;;;;;;;5083898;28;20028;-76
2021/12/23 01:16:24;;;;;;;95.05;36.97;;;;;;;;;;5114477;28;20004;-78
2021/12/23 01:18:54;;;;;;;96.93;36.15;;;;;;;;;;5118397;28;20127;-77
2021/12/23 01:21:20;;;;;;;92.20;36.03;;;;;;;;;;5104117;28;20096;-79
2021/12/23 01:23:48;;;;;;;92.43;36.22;;;;;;;;;;5100232;28;20023;-79
2021/12/23 01:26:18;;;;;;;90.28;35.80;;;;;;;;;;5081596;28;20035;-79
2021/12/23 01:28:45;;;;;;;96.55;36.88;;;;;;;;;;5099401;28;20078;-79
2021/12/23 01:31:11;;;;;;;93.80;38.08;;;;;;;;;;5102649;28;20062;-79
2021/12/23 01:33:37;;;;;;;90.20;38.28;;;;;;;;;;5103694;28;20024;-79
2021/12/23 01:36:03;;;;;;;94.22;37.20;;;;;;;;;;5106556;28;20028;-78
2021/12/23 01:38:29;;;;;;;87.00;35.45;;;;;;;;;;5113010;28;20028;-77
2021/12/23 01:40:55;;;;;;;89.07;34.92;;;;;;;;;;5117305;28;20044;-78
2021/12/23 01:43:21;;;;;;;88.68;35.92;;;;;;;;;;5116197;28;20016;-77
2021/12/23 01:45:48;;;;;;;86.45;35.00;;;;;;;;;;5114301;28;20015;-77
2021/12/23 01:48:15;;;;;;;82.93;35.35;;;;;;;;;;5102668;28;20024;-78
2021/12/23 01:50:41;;;;;;;82.40;34.58;;;;;;;;;;5099462;28;20110;-78
2021/12/23 01:53:07;;;;;;;88.72;35.38;;;;;;;;;;5104914;28;20039;-78
2021/12/23 01:55:35;;;;;;;84.82;34.97;;;;;;;;;;5099205;28;20107;-77
2021/12/23 01:58:01;;;;;;;87.85;35.00;;;;;;;;;;5097601;28;20119;-77
2021/12/23 02:00:30;;;;;;;81.03;33.72;;;;;;;;;;5095719;28;20392;-77
2021/12/23 02:02:57;;;;;;;86.63;34.13;;;;;;;;;;5094986;28;20102;-78
2021/12/23 02:05:23;;;;;;;88.63;33.92;;;;;;;;;;5094995;28;20032;-77
2021/12/23 02:07:50;;;;;;;81.75;33.85;;;;;;;;;;5094456;28;20049;-77
2021/12/23 02:10:16;;;;;;;83.18;32.88;;;;;;;;;;5094632;28;20032;-78
2021/12/23 02:12:44;;;;;;;79.60;32.85;;;;;;;;;;5094829;28;20024;-76
2021/12/23 02:15:10;;;;;;;85.20;34.40;;;;;;;;;;5095237;28;20024;-77
2021/12/23 02:17:36;;;;;;;78.93;33.90;;;;;;;;;;5094684;28;20480;-77
2021/12/23 02:20:03;;;;;;;78.80;32.65;;;;;;;;;;5094777;28;20020;-78
2021/12/23 02:22:29;;;;;;;82.82;33.75;;;;;;;;;;5094397;28;20061;-78
2021/12/23 02:24:55;;;;;;;79.10;32.65;;;;;;;;;;5076459;28;20024;-77
2021/12/23 02:27:21;;;;;;;74.95;32.53;;;;;;;;;;5094224;28;20031;-77
2021/12/23 02:29:47;;;;;;;71.80;32.05;;;;;;;;;;5076408;28;20435;-77
2021/12/23 02:32:13;;;;;;;78.13;32.22;;;;;;;;;;5076300;28;20381;-78
2021/12/23 02:34:39;;;;;;;84.28;32.00;;;;;;;;;;5095208;28;20028;-77
2021/12/23 02:37:05;;;;;;;79.03;32.50;;;;;;;;;;5094881;28;20031;-77
2021/12/23 02:39:31;;;;;;;74.43;32.92;;;;;;;;;;5096857;28;20031;-77
2021/12/23 02:41:58;;;;;;;67.25;30.60;;;;;;;;;;5099195;28;20024;-77
2021/12/23 02:44:24;;;;;;;74.88;31.92;;;;;;;;;;5095594;28;20031;-78
2021/12/23 02:46:50;;;;;;;70.10;31.20;;;;;;;;;;5094747;28;20034;-76
2021/12/23 02:49:17;;;;;;;69.55;30.95;;;;;;;;;;5096021;28;20032;-77
2021/12/23 02:51:43;;;;;;;72.53;31.33;;;;;;;;;;5077906;28;20020;-77
2021/12/23 02:54:10;;;;;;;77.78;31.98;;;;;;;;;;5099197;28;20427;-77
2021/12/23 02:56:36;;;;;;;74.60;31.30;;;;;;;;;;5099412;28;20016;-78
2021/12/23 02:59:02;;;;;;;67.35;30.20;;;;;;;;;;5096873;28;20389;-77
2021/12/23 03:01:28;;;;;;;70.10;30.45;;;;;;;;;;5096664;28;20278;-77
2021/12/23 03:03:54;;;;;;;69.20;30.65;;;;;;;;;;5096462;28;20473;-79
2021/12/23 03:06:22;;;;;;;70.18;30.30;;;;;;;;;;5096246;28;20059;-77
2021/12/23 03:08:50;;;;;;;60.00;28.83;;;;;;;;;;5094965;28;20116;-78
2021/12/23 03:11:18;;;;;;;66.18;28.98;;;;;;;;;;5094875;28;20031;-78
2021/12/23 03:13:44;;;;;;;66.35;29.15;;;;;;;;;;5094673;28;20028;-77
2021/12/23 03:16:11;;;;;;;61.47;27.27;;;;;;;;;;5076234;28;20032;-77
2021/12/23 03:18:37;;;;;;;68.43;28.98;;;;;;;;;;5095422;28;20024;-78
2021/12/23 03:21:04;;;;;;;67.80;28.52;;;;;;;;;;5101101;28;20020;-78
2021/12/23 03:23:30;;;;;;;63.65;28.35;;;;;;;;;;5083469;28;20045;-79
2021/12/23 03:25:56;;;;;;;71.07;29.23;;;;;;;;;;5082708;28;20032;-79
2021/12/23 03:28:22;;;;;;;67.68;29.65;;;;;;;;;;5075373;28;20021;-79
2021/12/23 03:30:48;;;;;;;64.47;29.20;;;;;;;;;;5080208;28;20086;-79
2021/12/23 03:33:15;;;;;;;66.18;28.25;;;;;;;;;;5078451;28;20024;-80
2021/12/23 03:35:41;;;;;;;62.13;27.10;;;;;;;;;;5060920;28;20092;-79
2021/12/23 03:38:08;;;;;;;62.50;27.65;;;;;;;;;;5076651;28;20122;-78
2021/12/23 03:40:34;;;;;;;58.92;28.17;;;;;;;;;;5079563;28;20094;-77
2021/12/23 03:43:00;;;;;;;61.72;28.77;;;;;;;;;;5083253;28;20032;-79
2021/12/23 03:45:26;;;;;;;54.28;25.98;;;;;;;;;;5082768;28;20032;-78
2021/12/23 03:47:52;;;;;;;67.45;28.75;;;;;;;;;;5079292;28;20058;-78
2021/12/23 03:50:20;;;;;;;62.55;29.10;;;;;;;;;;5077143;28;20036;-78
2021/12/23 03:52:47;;;;;;;70.93;29.08;;;;;;;;;;5057023;28;20485;-78
2021/12/23 03:55:14;;;;;;;59.70;26.80;;;;;;;;;;5078943;28;20052;-78
2021/12/23 03:57:40;;;;;;;61.05;28.23;;;;;;;;;;5077111;28;20493;-78
2021/12/23 04:00:08;;;;;;;68.95;30.08;;;;;;;;;;5060747;28;20056;-78
2021/12/23 04:02:34;;;;;;;62.67;27.55;;;;;;;;;;5094544;28;20020;-77
2021/12/23 04:05:00;;;;;;;64.47;29.10;;;;;;;;;;5095852;28;20008;-78
2021/12/23 04:07:26;;;;;;;67.93;26.88;;;;;;;;;;5096695;28;20032;-77
2021/12/23 04:09:51;;;;;;;67.13;28.10;;;;;;;;;;5095732;28;20165;-77
2021/12/23 04:12:18;;;;;;;65.00;28.50;;;;;;;;;;5095624;28;20036;-77
2021/12/23 04:14:44;;;;;;;64.25;27.85;;;;;;;;;;5079812;28;20028;-77
2021/12/23 04:17:10;;;;;;;65.30;28.63;;;;;;;;;;5081359;28;20070;-76
2021/12/23 04:19:35;;;;;;;56.53;26.90;;;;;;;;;;5083792;28;20028;-76
2021/12/23 04:22:01;;;;;;;59.28;27.50;;;;;;;;;;5080872;28;20031;-77
2021/12/23 04:24:28;;;;;;;65.03;28.58;;;;;;;;;;5085177;28;20099;-76
2021/12/23 04:26:54;;;;;;;63.22;27.98;;;;;;;;;;5078743;28;20025;-77
2021/12/23 04:29:20;;;;;;;59.40;27.08;;;;;;;;;;5077959;28;20029;-77
2021/12/23 04:31:46;;;;;;;65.18;28.75;;;;;;;;;;5062285;28;20092;-77
2021/12/23 04:34:12;;;;;;;60.53;27.58;;;;;;;;;;5075810;28;20478;-78
2021/12/23 04:36:38;;;;;;;66.35;30.17;;;;;;;;;;5077575;28;20036;-78
2021/12/23 04:39:05;;;;;;;62.50;27.52;;;;;;;;;;5078456;28;20047;-78
2021/12/23 04:41:31;;;;;;;61.45;27.90;;;;;;;;;;5078937;28;20055;-78
2021/12/23 04:43:58;;;;;;;61.17;27.63;;;;;;;;;;5077642;28;20048;-77
2021/12/23 04:46:24;;;;;;;60.85;27.08;;;;;;;;;;5076197;28;20543;-77
2021/12/23 04:48:51;;;;;;;57.72;26.77;;;;;;;;;;5076551;28;20032;-78
2021/12/23 04:51:17;;;;;;;65.25;28.50;;;;;;;;;;5076292;28;20069;-77
2021/12/23 04:53:44;;;;;;;67.20;29.13;;;;;;;;;;5080194;28;20035;-77
2021/12/23 04:56:11;;;;;;;68.47;29.13;;;;;;;;;;5079573;28;20016;-77
2021/12/23 04:58:37;;;;;;;69.85;29.25;;;;;;;;;;5077086;28;20031;-77
2021/12/23 05:01:06;;;;;;;65.72;29.38;;;;;;;;;;5076582;28;20425;-77
2021/12/23 05:03:32;;;;;;;64.90;28.38;;;;;;;;;;5076749;28;20103;-78
2021/12/23 05:05:58;;;;;;;61.28;28.88;;;;;;;;;;5079437;28;20067;-78
2021/12/23 05:08:24;;;;;;;67.70;29.45;;;;;;;;;;5065888;28;20050;-78
2021/12/23 05:10:50;;;;;;;64.90;29.23;;;;;;;;;;5087997;28;20100;-77
2021/12/23 05:13:16;;;;;;;62.50;27.95;;;;;;;;;;5087635;28;20036;-78
2021/12/23 05:15:42;;;;;;;60.60;27.50;;;;;;;;;;5078068;28;20416;-77
2021/12/23 05:18:09;;;;;;;65.45;28.75;;;;;;;;;;5077710;28;20032;-79
2021/12/23 05:20:35;;;;;;;59.83;28.05;;;;;;;;;;5077072;28;20024;-78
2021/12/23 05:23:01;;;;;;;61.08;27.55;;;;;;;;;;5059118;28;20024;-79
2021/12/23 05:25:28;;;;;;;67.05;28.75;;;;;;;;;;5078943;28;20039;-77
2021/12/23 05:27:54;;;;;;;60.10;27.58;;;;;;;;;;5059019;28;20392;-77
2021/12/23 05:30:21;;;;;;;61.70;27.77;;;;;;;;;;5075983;28;20027;-77
2021/12/23 05:32:47;;;;;;;64.22;27.67;;;;;;;;;;5075842;28;20106;-77
2021/12/23 05:35:14;;;;;;;71.32;29.45;;;;;;;;;;5074829;28;20060;-78
2021/12/23 05:37:41;;;;;;;63.92;27.83;;;;;;;;;;5077213;28;20048;-78
2021/12/23 05:40:08;;;;;;;66.45;29.02;;;;;;;;;;5076953;28;20033;-77
2021/12/23 05:42:34;;;;;;;67.30;28.60;;;;;;;;;;5078715;28;20036;-77
2021/12/23 05:45:00;;;;;;;67.15;29.65;;;;;;;;;;5077632;28;20038;-77
2021/12/23 05:47:26;;;;;;;63.75;28.95;;;;;;;;;;5075539;28;20149;-77
2021/12/23 05:49:52;;;;;;;62.63;28.58;;;;;;;;;;5075281;28;20039;-76
2021/12/23 05:52:17;;;;;;;68.80;30.48;;;;;;;;;;5087874;28;20029;-76
2021/12/23 05:54:43;;;;;;;67.93;30.45;;;;;;;;;;5076927;28;20056;-77
2021/12/23 05:57:09;;;;;;;65.50;28.75;;;;;;;;;;5076881;28;20031;-77
2021/12/23 05:59:36;;;;;;;72.65;31.38;;;;;;;;;;5077538;28;20052;-77
2021/12/23 06:02:06;;;;;;;72.53;31.20;;;;;;;;;;5076437;28;20020;-78
2021/12/23 06:04:33;;;;;;;71.68;29.88;;;;;;;;;;5089980;28;20078;-75
2021/12/23 06:06:59;;;;;;;71.22;33.05;;;;;;;;;;5089486;28;20326;-76
2021/12/23 06:09:25;;;;;;;79.88;32.83;;;;;;;;;;5090120;28;20039;-76
2021/12/23 06:11:51;;;;;;;77.35;33.65;;;;;;;;;;5089802;28;20025;-78
2021/12/23 06:14:18;;;;;;;67.75;30.15;;;;;;;;;;5090557;28;20043;-76
2021/12/23 06:16:44;;;;;;;70.88;30.60;;;;;;;;;;5091635;28;20021;-77
2021/12/23 06:19:10;;;;;;;72.32;30.00;;;;;;;;;;5090965;28;20024;-77
2021/12/23 06:21:36;;;;;;;70.78;31.38;;;;;;;;;;5092007;28;20024;-80
2021/12/23 06:24:03;;;;;;;67.22;29.50;;;;;;;;;;5072837;28;20028;-78
2021/12/23 06:26:29;;;;;;;68.72;30.13;;;;;;;;;;5090247;28;20023;-77
2021/12/23 06:28:55;;;;;;;63.55;29.70;;;;;;;;;;5072825;28;20028;-77
2021/12/23 06:31:21;;;;;;;77.75;31.10;;;;;;;;;;5092586;28;20154;-77
2021/12/23 06:33:47;;;;;;;65.90;30.33;;;;;;;;;;5080618;28;20028;-78
2021/12/23 06:36:13;;;;;;;70.65;31.13;;;;;;;;;;5067604;28;20031;-79
2021/12/23 06:38:40;;;;;;;68.72;30.10;;;;;;;;;;5088663;28;20084;-80
2021/12/23 06:41:06;;;;;;;66.05;30.52;;;;;;;;;;5085533;28;20111;-79
2021/12/23 06:43:32;;;;;;;72.30;32.47;;;;;;;;;;5082606;28;20058;-76
2021/12/23 06:46:00;;;;;;;72.60;31.25;;;;;;;;;;5079842;28;20501;-78
2021/12/23 06:48:26;;;;;;;74.43;33.03;;;;;;;;;;5079989;28;20375;-78
2021/12/23 06:50:56;;;;;;;71.18;30.52;;;;;;;;;;5078845;28;20106;-78
2021/12/23 06:53:22;;;;;;;70.93;30.25;;;;;;;;;;5065694;28;20036;-79
2021/12/23 06:55:50;;;;;;;70.80;30.92;;;;;;;;;;5081912;28;20020;-78
2021/12/23 06:58:16;;;;;;;74.60;32.75;;;;;;;;;;5079786;28;20037;-78
2021/12/23 07:00:42;;;;;;;84.95;35.35;;;;;;;;;;5078405;28;20028;-77
2021/12/23 07:03:09;;;;;;;84.38;38.30;;;;;;;;;;5093858;28;20117;-79
2021/12/23 07:05:35;;;;;;;94.90;41.85;;;;;;;;;;5078011;28;20035;-79
2021/12/23 07:08:09;;;;;;;95.70;43.20;;;;;;;;;;5076605;28;20025;-77
2021/12/23 07:10:35;;;;;;;;;;;;;;;;;;5077543;28;20021;-78
2021/12/23 07:13:01;;;;;;;95.75;42.40;;;;;;;;;;5059846;28;20019;-79
2021/12/23 07:15:28;;;;;;;92.35;41.05;;;;;;;;;;5074773;28;20052;-79
2021/12/23 07:17:55;;;;;;;87.47;38.10;;;;;;;;;;5076981;28;20040;-78
2021/12/23 07:20:22;;;;;;;88.95;38.67;;;;;;;;;;5078367;28;20033;-79
2021/12/23 07:22:48;;;;;;;83.03;38.03;;;;;;;;;;5077846;28;20029;-81
2021/12/23 07:25:15;;;;;;;84.00;36.65;;;;;;;;;;5078789;28;20044;-79
2021/12/23 07:27:41;;;;;;;78.57;35.25;;;;;;;;;;5076173;28;20020;-79
2021/12/23 07:30:08;;;;;;;75.88;34.60;;;;;;;;;;5078349;28;20436;-78
2021/12/23 07:32:34;;;;;;;78.25;34.38;;;;;;;;;;5078236;28;20389;-79
2021/12/23 07:35:00;;;;;;;71.75;33.22;;;;;;;;;;5079115;28;20029;-78
2021/12/23 07:37:27;;;;;;;78.05;34.55;;;;;;;;;;5078315;28;20027;-77
2021/12/23 07:39:54;;;;;;;75.40;35.25;;;;;;;;;;5079178;28;20113;-77
2021/12/23 07:42:20;;;;;;;71.20;33.40;;;;;;;;;;5079155;28;20047;-80
2021/12/23 07:44:46;;;;;;;85.63;36.60;;;;;;;;;;5080641;28;20025;-78
2021/12/23 07:47:13;;;;;;;67.55;32.35;;;;;;;;;;5085851;28;20036;-78
2021/12/23 07:49:39;;;;;;;68.10;30.52;;;;;;;;;;5100669;28;20009;-79
2021/12/23 07:52:06;;;;;;;65.53;30.58;;;;;;;;;;5101229;28;20033;-78
2021/12/23 07:54:32;;;;;;;62.78;28.80;;;;;;;;;;5120250;22;20535;-78
2021/12/23 07:56:58;;;;;;;64.13;28.85;;;;;;;;;;5101998;28;20032;-78
2021/12/23 07:59:24;;;;;;;60.40;28.33;;;;;;;;;;5101312;28;20171;-80
2021/12/23 08:01:50;;;;;;;62.25;30.05;;;;;;;;;;5102258;28;20481;-79
2021/12/23 08:04:16;;;;;;;59.42;27.20;;;;;;;;;;5102709;28;20134;-77
2021/12/23 08:06:42;;;;;;;60.28;28.38;;;;;;;;;;5103443;28;20077;-82
2021/12/23 08:09:09;;;;;;;60.08;28.15;;;;;;;;;;5102921;28;20028;-78
2021/12/23 08:11:34;;;;;;;57.58;27.17;;;;;;;;;;5104699;28;20171;-78
2021/12/23 08:14:00;;;;;;;58.22;27.50;;;;;;;;;;5103630;28;20060;-79
2021/12/23 08:16:26;;;;;;;100.93;34.15;;;;;;;;;;5101230;28;20028;-78
2021/12/23 08:18:52;;;;;;;70.35;31.45;;;;;;;;;;5102976;28;20103;-78
2021/12/23 08:21:18;;;;;;;130.48;46.85;;;;;;;;;;5105705;28;20046;-79
2021/12/23 08:23:45;;;;;;;107.40;41.72;;;;;;;;;;5100403;28;20155;-79
2021/12/23 08:26:16;;;;;;;55.50;28.13;;;;;;;;;;5101899;28;20039;-78
2021/12/23 08:28:42;;;;;;;53.60;27.27;;;;;;;;;;5109182;28;20488;-78
2021/12/23 08:31:08;;;;;;;155.60;53.13;;;;;;;;;;5087573;28;20033;-80
2021/12/23 08:33:34;;;;;;;136.90;49.17;;;;;;;;;;5082368;28;20112;-79
2021/12/23 08:36:00;;;;;;;118.72;44.00;;;;;;;;;;5102549;28;20020;-77
2021/12/23 08:38:26;;;;;;;56.92;27.23;;;;;;;;;;5104670;28;20035;-79
2021/12/23 08:40:52;;;;;;;55.22;27.33;;;;;;;;;;5104118;28;20024;-79
2021/12/23 08:43:18;;;;;;;51.80;27.17;;;;;;;;;;5105267;28;20040;-79
2021/12/23 08:45:44;;;;;;;54.28;26.88;;;;;;;;;;5104459;28;20102;-79
2021/12/23 08:48:10;;;;;;;55.40;27.35;;;;;;;;;;5099879;28;20103;-78
2021/12/23 08:50:36;;;;;;;58.55;27.48;;;;;;;;;;5102544;28;20058;-79
2021/12/23 08:53:02;;;;;;;56.25;27.42;;;;;;;;;;5081961;28;20024;-78
2021/12/23 08:55:31;;;;;;;66.95;30.23;;;;;;;;;;5098512;28;20136;-77
2021/12/23 08:57:57;;;;;;;58.00;27.83;;;;;;;;;;5097805;28;20021;-78
2021/12/23 09:00:26;;;;;;;53.55;27.90;;;;;;;;;;5083976;28;20031;-79
2021/12/23 09:02:52;;;;;;;54.28;26.50;;;;;;;;;;5102461;28;20047;-77
2021/12/23 09:05:19;;;;;;;84.75;36.28;;;;;;;;;;5098217;28;20447;-78
2021/12/23 09:07:45;;;;;;;57.25;28.92;;;;;;;;;;5100870;28;20028;-78
2021/12/23 09:10:12;;;;;;;51.92;26.88;;;;;;;;;;5100425;28;20035;-78
2021/12/23 09:12:38;;;;;;;55.53;26.23;;;;;;;;;;5100677;28;20066;-83
2021/12/23 09:15:04;;;;;;;55.90;28.38;;;;;;;;;;5112165;28;20027;-77
2021/12/23 09:17:30;;;;;;;55.67;26.73;;;;;;;;;;5112826;28;20079;-80
2021/12/23 09:19:57;;;;;;;61.83;28.25;;;;;;;;;;5109150;28;20093;-79
2021/12/23 09:22:23;;;;;;;57.47;27.88;;;;;;;;;;5115985;28;20032;-77
2021/12/23 09:24:52;;;;;;;58.20;27.40;;;;;;;;;;5117966;28;20038;-77
2021/12/23 09:35:02;;;;;;;71.13;28.77;;;;;;;;;;5111735;28;20043;-77
2021/12/23 09:37:28;;;;;;;78.53;36.05;;;;;;;;;;5103299;28;20032;-78
2021/12/23 09:39:57;;;;;;;56.60;28.42;;;;;;;;;;5081722;28;20039;-77
2021/12/23 09:42:33;;;;;;;55.75;26.75;;;;;;;;;;5102846;28;20031;-79
2021/12/23 09:45:03;;;;;;;54.65;27.45;;;;;;;;;;5102755;28;20076;-79
2021/12/23 09:47:30;;;;;;;53.50;26.88;;;;;;;;;;5100526;28;20026;-78
2021/12/23 09:49:57;;;;;;;63.92;29.63;;;;;;;;;;5098055;28;20035;-80
2021/12/23 09:52:24;;;;;;;54.60;26.80;;;;;;;;;;5098329;28;20024;-79
2021/12/23 09:54:51;;;;;;;56.38;26.15;;;;;;;;;;5080633;28;20035;-79
2021/12/23 09:57:17;;;;;;;53.53;27.38;;;;;;;;;;5098525;28;20036;-78
2021/12/23 09:59:44;;;;;;;50.55;26.73;;;;;;;;;;5078758;28;20024;-78
2021/12/23 10:02:10;;;;;;;56.80;25.40;;;;;;;;;;5078929;28;20104;-77
2021/12/23 10:04:36;;;;;;;50.15;25.08;;;;;;;;;;5098155;28;20031;-82
2021/12/23 10:07:03;;;;;;;51.30;26.85;;;;;;;;;;5098280;28;20028;-77
2021/12/23 10:09:42;;;;;;;49.08;26.23;;;;;;;;;;5079495;28;20020;-80
2021/12/23 10:31:29;;;;;;;57.15;28.17;;;;;;;;;;5103391;28;20038;-79
2021/12/23 10:37:13;;;;;;;54.17;27.15;;;;;;;;;;5093766;28;20024;-78
2021/12/23 10:39:35;;;;;;;60.25;29.50;;;;;;;;;;5098104;28;20032;-77
2021/12/23 10:42:10;;;;;;;63.92;29.55;;;;;;;;;;5079066;28;20027;-78
2021/12/23 10:44:36;;;;;;;65.10;27.75;;;;;;;;;;5095731;28;20627;-78
2021/12/23 12:28:22;;;;;;;49.08;25.17;;;;;;;;;;5909031;22;20324;-77
2021/12/23 12:30:50;;;;;;;53.33;25.55;;;;;;;;;;5053224;28;20041;-76
2021/12/23 12:33:19;;;;;;;47.78;25.30;;;;;;;;;;5054062;28;20060;-77
2021/12/23 12:36:06;;;;;;;47.33;26.70;;;;;;;;;;5054081;28;20179;-78
2021/12/23 12:38:40;;;;;;;45.60;26.05;;;;;;;;;;5040006;28;20026;-77
2021/12/23 12:41:11;;;;;;;50.83;26.10;;;;;;;;;;5035214;28;20031;-77
2021/12/23 12:43:44;;;;;;;48.85;27.13;;;;;;;;;;5056845;28;20173;-77
2021/12/23 12:46:11;;;;;;;53.60;27.65;;;;;;;;;;5055359;28;20033;-77
2021/12/23 12:49:09;;;;;;;51.67;27.17;;;;;;;;;;5056619;28;20059;-79
2021/12/23 12:51:36;;;;;;;50.03;26.65;;;;;;;;;;5055848;28;20100;-77
2021/12/23 12:54:05;;;;;;;50.20;25.65;;;;;;;;;;5055011;28;20100;-76
2021/12/23 12:56:32;;;;;;;57.95;27.65;;;;;;;;;;5056870;28;20021;-78
2021/12/23 12:58:58;;;;;;;60.72;27.15;;;;;;;;;;5057090;28;20033;-76
2021/12/23 13:01:31;;;;;;;55.97;28.50;;;;;;;;;;5056187;28;20389;-77
2021/12/23 13:03:59;;;;;;;51.05;27.40;;;;;;;;;;5057527;28;20495;-78
2021/12/23 13:06:28;;;;;;;56.70;27.73;;;;;;;;;;5057175;28;20124;-77
2021/12/23 13:09:02;;;;;;;64.13;28.38;;;;;;;;;;5057704;28;20021;-77
2021/12/23 13:11:28;;;;;;;55.60;28.48;;;;;;;;;;5055750;28;20058;-76
2021/12/23 13:14:01;;;;;;;57.15;30.10;;;;;;;;;;5055363;28;20033;-77
2021/12/23 13:16:28;;;;;;;62.58;31.48;;;;;;;;;;5055749;28;20013;-76
2021/12/23 13:19:13;;;;;;;59.88;31.98;;;;;;;;;;5069999;28;20020;-75
2021/12/23 13:21:43;;;;;;;56.88;31.08;;;;;;;;;;5067386;28;20048;-77
2021/12/23 13:24:12;;;;;;;61.30;31.08;;;;;;;;;;5058306;28;20051;-77
2021/12/23 13:26:38;;;;;;;60.78;32.03;;;;;;;;;;5056615;28;20091;-77
2021/12/23 13:29:07;;;;;;;64.50;33.53;;;;;;;;;;5067804;28;20067;-77
2021/12/23 13:31:33;;;;;;;59.20;31.65;;;;;;;;;;5071426;28;20035;-76
2021/12/23 13:34:07;;;;;;;57.45;31.15;;;;;;;;;;5061239;28;20106;-76
2021/12/23 13:36:34;;;;;;;58.92;33.10;;;;;;;;;;5056226;28;20017;-77
2021/12/23 13:39:17;;;;;;;65.82;33.28;;;;;;;;;;5054234;28;20060;-77
2021/12/23 13:41:45;;;;;;;70.63;34.30;;;;;;;;;;5054335;28;20027;-76
2021/12/23 13:44:25;;;;;;;64.80;35.15;;;;;;;;;;5055968;28;20025;-76
2021/12/23 13:47:00;;;;;;;67.13;35.22;;;;;;;;;;5055086;28;20048;-77
2021/12/23 13:49:35;;;;;;;63.33;34.10;;;;;;;;;;5058176;28;20111;-77
2021/12/23 13:52:02;;;;;;;71.85;37.50;;;;;;;;;;5064544;28;20036;-77
2021/12/23 13:54:35;;;;;;;65.72;33.85;;;;;;;;;;5069193;28;20045;-76
2021/12/23 13:57:02;;;;;;;67.70;35.40;;;;;;;;;;5063654;28;20120;-77
2021/12/23 13:59:29;;;;;;;64.25;34.30;;;;;;;;;;5057014;28;20064;-76
2021/12/23 14:02:06;;;;;;;64.45;35.42;;;;;;;;;;5056618;28;20108;-75
2021/12/23 14:04:38;;;;;;;65.10;34.40;;;;;;;;;;5056874;28;20028;-77
2021/12/23 14:07:27;;;;;;;67.63;36.33;;;;;;;;;;5053500;28;20075;-75
2021/12/23 14:09:55;;;;;;;68.40;35.88;;;;;;;;;;5058378;28;20087;-76
2021/12/23 14:12:44;;;;;;;65.03;35.05;;;;;;;;;;5060735;28;20040;-76
2021/12/23 14:15:12;;;;;;;68.97;36.45;;;;;;;;;;5057546;28;20025;-76
2021/12/23 14:17:40;;;;;;;70.15;35.63;;;;;;;;;;5057486;28;20032;-76
2021/12/23 14:23:13;;;;;;;66.57;36.35;;;;;;;;;;5023885;28;20033;-76
2021/12/23 14:25:43;;;;;;;72.22;38.42;;;;;;;;;;5073754;28;20009;-78
2021/12/23 14:28:10;;;;;;;65.93;36.40;;;;;;;;;;5074490;28;20024;-77
2021/12/23 14:30:37;;;;;;;74.78;38.80;;;;;;;;;;5076443;28;20076;-77
2021/12/23 14:33:12;;;;;;;71.72;39.00;;;;;;;;;;5074958;28;20089;-76
2021/12/23 14:35:38;;;;;;;79.57;39.63;;;;;;;;;;5076790;28;20046;-77
2021/12/23 14:38:04;;;;;;;94.70;47.33;;;;;;;;;;5064815;28;20071;-77
2021/12/23 14:40:30;;;;;;;94.38;49.00;;;;;;;;;;5056530;28;20029;-76
2021/12/23 14:42:57;;;;;;;83.22;41.60;;;;;;;;;;5055754;28;20032;-76
2021/12/23 14:45:23;;;;;;;70.53;38.45;;;;;;;;;;5055027;28;20017;-76
2021/12/23 14:48:00;;;;;;;70.43;36.95;;;;;;;;;;5055160;28;20381;-76
2021/12/23 14:50:36;;;;;;;63.75;35.25;;;;;;;;;;5054273;28;20032;-76
2021/12/23 14:53:01;;;;;;;69.78;37.72;;;0.10;99.90;;;;;;5054943;28;20036;-75
2021/12/23 14:55:33;;;;;;;72.38;37.15;;;2.00;99.90;;;;;;5053521;28;20025;-76
2021/12/23 14:58:01;;;;;;;76.10;38.47;;;2.00;99.90;;;;;;5055827;28;20122;-77
2021/12/23 15:00:34;;;;;;;69.85;37.38;;;2.00;99.90;;;;;;5055637;28;20363;-75
2021/12/23 15:03:08;;;;;;;73.47;38.85;;;2.00;99.90;;;;;;5056590;28;20029;-75
2021/12/23 15:05:37;;;;;;;74.90;37.47;;;2.00;99.90;;;;;;5057222;28;20029;-75
2021/12/23 15:08:14;;;;;;;69.68;39.00;;;1.80;99.90;;;;;;5064524;28;20033;-74
2021/12/23 15:10:44;;;;;;;87.95;44.55;;;1.90;99.90;;;;;;5074885;28;20028;-73
2021/12/23 15:13:22;;;;;;;76.20;38.88;;;1.90;99.90;;;;;;5077201;28;20021;-77
2021/12/23 15:16:10;;;;;;;76.43;39.33;;;1.90;99.90;;;;;;5076827;28;20040;-76
2021/12/23 15:21:47;;;;;;;77.80;40.13;;;1.90;99.90;;;;;;5056476;28;20052;-76
2021/12/23 15:24:33;;;;;;;73.80;38.63;;;1.90;99.90;;;;;;5053931;28;20021;-76
2021/12/23 15:27:01;;;;;;;75.78;39.92;;;1.90;99.90;;;;;;5054493;28;20055;-76
2021/12/23 15:29:29;;;;;;;72.97;39.97;;;1.90;99.90;;;;;;5054693;28;20104;-76
2021/12/23 15:31:57;;;;;;;70.40;38.85;;;1.90;99.90;;;;;;5055316;28;20029;-76
2021/12/23 15:34:23;;;;;;;79.22;42.35;;;2.00;99.90;;;;;;5054277;28;20033;-76
2021/12/23 15:36:49;;;;;;;82.35;42.70;;;1.90;99.90;;;;;;5054137;28;20025;-76
2021/12/23 15:39:17;;;;;;;71.25;39.13;;;2.00;99.90;;;;;;5054358;28;20022;-75
2021/12/23 15:41:43;;;;;;;86.57;43.25;;;2.00;99.90;;;;;;5052922;28;20113;-74
2021/12/23 15:44:09;;;;;;;90.60;45.65;;;2.00;99.90;;;;;;5054111;28;20075;-76
2021/12/23 15:46:34;;;;;;;82.05;42.35;;;2.10;99.90;;;;;;5053867;28;20021;-76
2021/12/23 15:49:00;;;;;;;84.60;44.88;;;2.10;99.90;;;;;;5054415;28;20020;-75
2021/12/23 15:51:27;;;;;;;75.32;41.38;;;2.10;99.90;;;;;;5054143;28;20063;-75
2021/12/23 15:53:52;;;;;;;72.70;39.05;;;2.10;99.90;;;;;;5054795;28;20055;-76
2021/12/23 15:56:18;;;;;;;71.63;38.50;;;2.10;99.90;;;;;;5054052;28;20466;-77
2021/12/23 15:58:45;;;;;;;73.22;38.60;;;2.20;99.90;;;;;;5062418;28;20670;-76
2021/12/23 16:01:11;;;;;;;71.68;38.42;;;2.20;99.90;;;;;;5066120;28;20025;-77
2021/12/23 16:03:39;;;;;;;69.65;37.03;;;2.20;99.90;;;;;;5065979;28;20091;-76
2021/12/23 16:08:50;;;;;;;69.57;37.67;;;2.40;99.90;;;;;;5061314;28;20105;-77
2021/12/23 16:11:16;;;;;;;68.47;37.92;;;2.30;99.90;;;;;;5058594;28;20064;-76
2021/12/23 16:13:42;;;;;;;64.88;36.05;;;2.30;99.90;;;;;;5058526;28;20079;-75
2021/12/23 16:16:07;;;;;;;69.55;37.35;;;2.40;99.90;;;;;;5054396;28;20389;-75
2021/12/23 16:18:33;;;;;;;74.97;41.72;;;2.40;99.90;;;;;;5036151;28;20034;-75
2021/12/23 17:41:16;;;;;;;69.50;37.47;;;2.60;99.90;;;;;;5699931;22;19928;-80
2021/12/23 17:43:42;;;;;;;69.90;38.33;;;2.60;99.90;;;;;;5050332;28;20025;-79
2021/12/23 17:46:08;;;;;;;75.00;39.90;;;2.50;99.90;;;;;;5049983;28;20060;-78
2021/12/23 17:48:33;;;;;;;76.85;40.95;;;2.50;99.90;;;;;;5033352;28;20029;-81
2021/12/23 17:51:01;;;;;;;81.15;41.65;;;2.50;99.90;;;;;;5062260;28;20080;-78